createdAt,value
2019-01-13T00:01:28.177Z,52.10
2019-01-13T00:04:20.779Z,52.00
2019-01-13T00:07:12.712Z,52.20
2019-01-13T00:10:04.706Z,52.20
2019-01-13T00:12:56.967Z,52.20
2019-01-13T00:15:49.140Z,52.20
2019-01-13T00:18:41.253Z,52.20
2019-01-13T00:21:33.367Z,52.20
2019-01-13T00:24:26.146Z,52.10
2019-01-13T00:27:18.111Z,52.00
2019-01-13T00:30:19.200Z,52.10
2019-01-13T00:33:06.330Z,52.10
2019-01-13T00:35:58.240Z,52.00
2019-01-13T00:38:51.303Z,52.00
2019-01-13T00:41:43.421Z,52.00
2019-01-13T00:44:35.567Z,52.00
2019-01-13T00:47:27.340Z,52.00
2019-01-13T00:50:19.244Z,52.10
2019-01-13T00:53:11.226Z,52.20
2019-01-13T00:56:03.540Z,52.10
2019-01-13T00:58:55.644Z,52.10
2019-01-13T01:01:48.805Z,52.10
2019-01-13T01:04:41.971Z,52.10
2019-01-13T01:07:34.039Z,52.10
2019-01-13T01:10:26.070Z,52.10
2019-01-13T01:13:18.351Z,52.10
2019-01-13T01:16:12.060Z,52.10
2019-01-13T01:19:04.125Z,52.20
2019-01-13T01:21:56.053Z,52.10
2019-01-13T01:24:48.122Z,52.20
2019-01-13T01:27:46.109Z,52.20
2019-01-13T01:30:37.917Z,52.20
2019-01-13T01:33:30.152Z,52.20
2019-01-13T01:36:22.545Z,52.20
2019-01-13T01:39:14.132Z,52.20
2019-01-13T01:42:06.914Z,52.30
2019-01-13T01:44:58.839Z,52.40
2019-01-13T01:47:50.910Z,52.30
2019-01-13T01:50:42.923Z,52.40
2019-01-13T01:53:34.610Z,52.40
2019-01-13T01:56:26.650Z,52.30
2019-01-13T01:59:18.375Z,52.40
2019-01-13T02:02:10.391Z,52.40
2019-01-13T02:05:02.434Z,52.50
2019-01-13T02:07:54.434Z,52.60
2019-01-13T02:10:46.534Z,52.50
2019-01-13T02:13:38.303Z,53.10
2019-01-13T02:16:30.016Z,52.60
2019-01-13T02:19:22.240Z,52.60
2019-01-13T02:22:14.177Z,52.60
2019-01-13T02:25:07.053Z,52.60
2019-01-13T02:27:58.965Z,52.70
2019-01-13T02:30:50.739Z,52.70
2019-01-13T02:33:45.123Z,52.70
2019-01-13T02:36:36.908Z,52.60
2019-01-13T02:39:28.894Z,52.60
2019-01-13T02:42:20.916Z,52.70
2019-01-13T02:45:14.887Z,52.80
2019-01-13T02:48:08.215Z,52.60
2019-01-13T02:51:00.380Z,52.60
2019-01-13T02:53:52.599Z,52.70
2019-01-13T02:56:44.673Z,52.70
2019-01-13T02:59:46.782Z,52.60
2019-01-13T03:02:37.188Z,52.90
2019-01-13T03:05:29.839Z,52.60
2019-01-13T03:08:21.724Z,52.80
2019-01-13T03:11:13.768Z,52.70
2019-01-13T03:14:07.481Z,52.70
2019-01-13T03:16:59.824Z,52.60
2019-01-13T03:19:54.695Z,52.60
2019-01-13T03:22:56.684Z,52.60
2019-01-13T03:25:48.725Z,52.50
2019-01-13T03:28:43.298Z,52.60
2019-01-13T03:31:35.359Z,52.60
2019-01-13T03:34:27.921Z,52.60
2019-01-13T03:37:20.509Z,52.80
2019-01-13T03:40:14.509Z,52.60
2019-01-13T03:43:06.697Z,52.60
2019-01-13T03:45:58.885Z,52.60
2019-01-13T03:48:51.176Z,52.60
2019-01-13T03:51:43.336Z,52.60
2019-01-13T03:54:35.570Z,52.60
2019-01-13T03:57:32.163Z,52.50
2019-01-13T04:00:30.190Z,52.50
2019-01-13T04:03:22.754Z,52.60
2019-01-13T04:06:15.298Z,52.60
2019-01-13T04:09:09.709Z,52.70
2019-01-13T04:12:02.090Z,52.50
2019-01-13T04:14:54.210Z,52.50
2019-01-13T04:17:46.631Z,52.50
2019-01-13T04:20:38.913Z,52.50
2019-01-13T04:23:32.446Z,52.30
2019-01-13T04:26:31.644Z,52.30
2019-01-13T04:29:23.481Z,52.30
2019-01-13T04:32:15.584Z,52.20
2019-01-13T04:35:08.291Z,52.20
2019-01-13T04:38:03.359Z,52.40
2019-01-13T04:40:55.677Z,52.20
2019-01-13T04:43:52.207Z,52.20
2019-01-13T04:46:44.180Z,52.10
2019-01-13T04:49:41.459Z,52.10
2019-01-13T04:52:45.789Z,52.10
2019-01-13T04:55:41.419Z,52.10
2019-01-13T04:58:45.728Z,52.10
2019-01-13T05:04:52.345Z,52.20
2019-01-13T05:07:44.675Z,52.10
2019-01-13T05:10:36.582Z,52.20
2019-01-13T05:13:28.909Z,52.20
2019-01-13T05:16:20.932Z,52.20
2019-01-13T05:19:13.432Z,52.40
2019-01-13T05:22:06.076Z,52.20
2019-01-13T05:24:58.084Z,52.40
2019-01-13T05:27:50.178Z,52.40
2019-01-13T05:30:42.439Z,52.30
2019-01-13T05:33:34.113Z,52.40
2019-01-13T05:36:26.918Z,52.40
2019-01-13T05:39:18.693Z,52.20
2019-01-13T05:42:10.459Z,52.20
2019-01-13T05:45:02.085Z,52.30
2019-01-13T05:47:53.782Z,52.30
2019-01-13T05:50:45.628Z,52.30
2019-01-13T05:53:37.616Z,52.20
2019-01-13T05:56:31.305Z,52.30
2019-01-13T05:59:23.426Z,52.20
2019-01-13T06:02:17.002Z,52.40
2019-01-13T06:05:09.458Z,52.30
2019-01-13T06:08:02.519Z,52.30
2019-01-13T06:10:54.517Z,52.40
2019-01-13T06:13:46.857Z,52.40
2019-01-13T06:16:38.774Z,52.40
2019-01-13T06:19:31.036Z,52.30
2019-01-13T06:22:26.282Z,52.30
2019-01-13T06:25:19.901Z,52.30
2019-01-13T06:28:12.322Z,52.40
2019-01-13T06:31:04.572Z,52.30
2019-01-13T06:33:57.189Z,52.30
2019-01-13T06:36:49.191Z,52.20
2019-01-13T06:39:41.281Z,52.30
2019-01-13T06:42:33.260Z,52.40
2019-01-13T06:45:28.669Z,52.40
2019-01-13T06:48:20.695Z,52.40
2019-01-13T06:51:13.086Z,52.40
2019-01-13T06:54:05.019Z,52.50
2019-01-13T06:56:57.259Z,52.40
2019-01-13T06:59:51.826Z,52.40
2019-01-13T07:02:44.808Z,52.40
2019-01-13T07:05:36.602Z,52.50
2019-01-13T07:08:29.849Z,52.50
2019-01-13T07:11:21.772Z,52.50
2019-01-13T07:14:13.643Z,52.50
2019-01-13T07:17:06.142Z,52.80
2019-01-13T07:19:59.253Z,52.70
2019-01-13T07:22:52.039Z,52.60
2019-01-13T07:25:45.449Z,52.70
2019-01-13T07:28:38.204Z,52.90
2019-01-13T07:31:30.304Z,52.70
2019-01-13T07:34:22.282Z,52.90
2019-01-13T07:37:15.113Z,52.80
2019-01-13T07:40:08.606Z,52.80
2019-01-13T07:43:00.669Z,52.90
2019-01-13T07:45:52.738Z,52.90
2019-01-13T07:48:45.515Z,53.00
2019-01-13T07:51:37.309Z,53.10
2019-01-13T07:54:29.824Z,53.10
2019-01-13T07:57:21.985Z,53.00
2019-01-13T08:00:17.671Z,53.10
2019-01-13T08:03:09.883Z,53.10
2019-01-13T08:06:02.653Z,53.10
2019-01-13T08:08:54.908Z,53.10
2019-01-13T08:11:47.737Z,53.10
2019-01-13T08:14:40.036Z,53.30
2019-01-13T08:17:32.485Z,53.30
2019-01-13T08:20:27.013Z,53.30
2019-01-13T08:23:20.827Z,53.30
2019-01-13T08:26:12.806Z,53.40
2019-01-13T08:29:05.390Z,53.30
2019-01-13T08:31:57.724Z,53.40
2019-01-13T08:34:50.069Z,53.40
2019-01-13T08:37:43.270Z,53.40
2019-01-13T08:40:35.684Z,53.40
2019-01-13T08:43:30.061Z,53.30
2019-01-13T08:46:22.582Z,53.40
2019-01-13T08:49:14.740Z,53.60
2019-01-13T08:52:08.396Z,53.30
2019-01-13T08:55:00.289Z,53.60
2019-01-13T08:57:53.018Z,53.50
2019-01-13T09:00:45.101Z,53.40
2019-01-13T09:03:37.676Z,53.40
2019-01-13T09:06:30.193Z,53.50
2019-01-13T09:09:23.208Z,53.50
2019-01-13T09:12:15.139Z,53.50
2019-01-13T09:15:09.146Z,53.60
2019-01-13T09:18:01.289Z,53.60
2019-01-13T09:20:54.236Z,53.40
2019-01-13T09:23:46.492Z,53.30
2019-01-13T09:26:38.955Z,53.50
2019-01-13T09:29:32.392Z,53.50
2019-01-13T09:32:25.467Z,53.50
2019-01-13T09:35:18.424Z,53.40
2019-01-13T09:38:10.309Z,53.50
2019-01-13T09:41:04.772Z,53.60
2019-01-13T09:43:57.483Z,53.70
2019-01-13T09:46:49.170Z,53.60
2019-01-13T09:49:40.917Z,53.50
2019-01-13T09:52:32.625Z,53.60
2019-01-13T09:55:24.641Z,53.60
2019-01-13T09:58:17.836Z,53.70
2019-01-13T10:01:09.726Z,53.40
2019-01-13T10:04:01.501Z,53.60
2019-01-13T10:06:53.473Z,53.60
2019-01-13T10:09:45.823Z,53.70
2019-01-13T10:12:38.527Z,53.60
2019-01-13T10:15:31.245Z,53.50
2019-01-13T10:18:23.076Z,53.60
2019-01-13T10:21:15.359Z,53.50
2019-01-13T10:24:07.409Z,53.50
2019-01-13T10:27:01.527Z,53.60
2019-01-13T10:29:53.511Z,53.70
2019-01-13T10:32:46.752Z,53.60
2019-01-13T10:35:38.980Z,53.60
2019-01-13T10:38:30.922Z,53.60
2019-01-13T10:41:23.171Z,53.60
2019-01-13T10:44:16.705Z,53.50
2019-01-13T10:47:08.918Z,53.50
2019-01-13T10:50:01.612Z,53.60
2019-01-13T10:52:54.395Z,53.50
2019-01-13T10:55:46.169Z,53.60
2019-01-13T10:58:38.758Z,53.80
2019-01-13T11:01:31.042Z,53.60
2019-01-13T11:04:23.935Z,53.50
2019-01-13T11:07:15.986Z,53.60
2019-01-13T11:10:08.849Z,53.60
2019-01-13T11:13:01.284Z,53.60
2019-01-13T11:15:53.884Z,53.60
2019-01-13T11:18:48.313Z,53.60
2019-01-13T11:21:41.854Z,53.60
2019-01-13T11:24:33.732Z,53.50
2019-01-13T11:27:26.145Z,53.50
2019-01-13T11:30:19.862Z,53.50
2019-01-13T11:33:12.599Z,53.50
2019-01-13T11:36:04.473Z,53.60
2019-01-13T11:38:57.477Z,53.50
2019-01-13T11:41:49.705Z,53.50
2019-01-13T11:44:42.285Z,53.50
2019-01-13T11:47:34.912Z,53.50
2019-01-13T11:50:29.846Z,54.20
2019-01-13T11:53:25.679Z,53.60
2019-01-13T11:56:17.979Z,53.60
2019-01-13T11:59:10.041Z,53.70
2019-01-13T12:02:02.912Z,53.70
2019-01-13T12:04:55.725Z,53.70
2019-01-13T12:07:49.129Z,53.70
2019-01-13T12:10:41.707Z,53.80
2019-01-13T12:13:34.906Z,53.80
2019-01-13T12:16:27.468Z,53.80
2019-01-13T12:19:19.807Z,53.70
2019-01-13T12:22:13.243Z,53.80
2019-01-13T12:25:08.348Z,53.70
2019-01-13T12:28:00.941Z,53.70
2019-01-13T12:30:53.362Z,53.70
2019-01-13T12:33:45.814Z,53.70
2019-01-13T12:36:38.656Z,53.70
2019-01-13T12:39:30.984Z,53.80
2019-01-13T12:42:23.321Z,53.80
2019-01-13T12:45:16.407Z,53.80
2019-01-13T12:48:09.887Z,53.80
2019-01-13T12:51:02.215Z,53.90
2019-01-13T12:53:54.948Z,53.80
2019-01-13T12:56:47.012Z,53.70
2019-01-13T12:59:39.233Z,53.80
2019-01-13T13:02:31.056Z,53.70
2019-01-13T13:05:23.525Z,53.70
2019-01-13T13:08:15.683Z,53.80
2019-01-13T13:11:07.699Z,53.80
2019-01-13T13:13:59.752Z,53.70
2019-01-13T13:16:51.815Z,53.70
2019-01-13T13:19:43.806Z,53.70
2019-01-13T13:22:38.533Z,53.70
2019-01-13T13:25:32.079Z,53.70
2019-01-13T13:28:23.642Z,53.80
2019-01-13T13:31:15.593Z,53.70
2019-01-13T13:34:07.267Z,53.80
2019-01-13T13:36:59.282Z,53.80
2019-01-13T13:39:51.437Z,53.90
2019-01-13T13:42:43.439Z,53.80
2019-01-13T13:45:36.319Z,53.80
2019-01-13T13:48:28.473Z,53.80
2019-01-13T13:51:20.558Z,53.80
2019-01-13T13:54:13.065Z,53.90
2019-01-13T13:57:05.564Z,53.90
2019-01-13T13:59:58.050Z,53.80
2019-01-13T14:02:52.337Z,53.80
2019-01-13T14:05:44.762Z,53.90
2019-01-13T14:08:36.995Z,54.00
2019-01-13T14:11:30.495Z,54.00
2019-01-13T14:14:23.046Z,53.90
2019-01-13T14:17:15.850Z,53.80
2019-01-13T14:20:11.335Z,53.90
2019-01-13T14:23:04.227Z,53.80
2019-01-13T14:25:57.308Z,53.80
2019-01-13T14:28:49.425Z,53.90
2019-01-13T14:31:41.708Z,53.90
2019-01-13T14:34:34.363Z,53.90
2019-01-13T14:37:27.038Z,53.90
2019-01-13T14:40:20.536Z,53.90
2019-01-13T14:43:13.339Z,53.90
2019-01-13T14:46:05.646Z,54.00
2019-01-13T14:48:58.227Z,54.10
2019-01-13T14:51:50.352Z,54.00
2019-01-13T14:54:43.036Z,54.00
2019-01-13T14:57:35.496Z,54.00
2019-01-13T15:00:34.579Z,53.90
2019-01-13T15:03:28.016Z,54.00
2019-01-13T15:06:21.274Z,53.90
2019-01-13T15:09:13.409Z,54.00
2019-01-13T15:12:06.810Z,54.00
2019-01-13T15:15:00.267Z,54.00
2019-01-13T15:17:53.050Z,54.00
2019-01-13T15:20:45.036Z,54.00
2019-01-13T15:23:38.114Z,54.10
2019-01-13T15:26:32.853Z,53.90
2019-01-13T15:29:25.494Z,54.00
2019-01-13T15:32:17.751Z,54.00
2019-01-13T15:35:09.756Z,53.90
2019-01-13T15:38:02.163Z,54.00
2019-01-13T15:40:54.174Z,54.10
2019-01-13T15:43:46.243Z,54.00
2019-01-13T15:46:38.444Z,54.00
2019-01-13T15:49:30.917Z,54.00
2019-01-13T15:52:23.045Z,54.00
2019-01-13T15:55:15.013Z,53.90
2019-01-13T15:58:07.019Z,54.00
2019-01-13T16:00:58.972Z,54.20
2019-01-13T16:03:51.108Z,54.50
2019-01-13T16:06:44.626Z,54.30
2019-01-13T16:09:36.502Z,54.90
2019-01-13T16:12:28.782Z,54.10
2019-01-13T16:15:20.671Z,54.10
2019-01-13T16:18:13.056Z,54.10
2019-01-13T16:21:05.168Z,54.30
2019-01-13T16:23:57.294Z,54.20
2019-01-13T16:26:52.436Z,54.20
2019-01-13T16:29:44.508Z,54.20
2019-01-13T16:32:40.271Z,54.30
2019-01-13T16:35:32.993Z,54.30
2019-01-13T16:38:25.510Z,54.30
2019-01-13T16:41:17.576Z,54.40
2019-01-13T16:44:09.907Z,54.40
2019-01-13T16:47:02.287Z,54.40
2019-01-13T16:49:54.391Z,54.30
2019-01-13T16:52:47.308Z,54.40
2019-01-13T16:55:39.355Z,54.30
2019-01-13T16:58:31.314Z,54.30
2019-01-13T17:01:23.059Z,54.30
2019-01-13T17:04:15.686Z,54.20
2019-01-13T17:07:07.457Z,54.30
2019-01-13T17:09:59.463Z,54.40
2019-01-13T17:12:51.183Z,54.40
2019-01-13T17:15:42.988Z,54.40
2019-01-13T17:18:34.572Z,54.40
2019-01-13T17:21:26.921Z,54.40
2019-01-13T17:24:18.683Z,54.40
2019-01-13T17:27:10.656Z,54.40
2019-01-13T17:30:03.075Z,54.40
2019-01-13T17:32:55.717Z,54.40
2019-01-13T17:35:48.175Z,54.50
2019-01-13T17:38:40.493Z,54.50
2019-01-13T17:41:32.718Z,54.40
2019-01-13T17:44:27.135Z,54.50
2019-01-13T17:47:19.677Z,54.50
2019-01-13T17:50:13.541Z,54.50
2019-01-13T17:53:05.695Z,54.60
2019-01-13T17:55:57.830Z,54.60
2019-01-13T17:58:50.455Z,54.60
2019-01-13T18:01:48.622Z,54.60
2019-01-13T18:04:43.271Z,54.70
2019-01-13T18:07:33.980Z,54.80
2019-01-13T18:10:25.794Z,54.60
2019-01-13T18:13:17.495Z,54.60
2019-01-13T18:16:09.682Z,54.60
2019-01-13T18:19:01.876Z,54.60
2019-01-13T18:21:54.600Z,54.60
2019-01-13T18:24:46.348Z,54.80
2019-01-13T18:27:38.185Z,54.80
2019-01-13T18:30:30.148Z,54.80
2019-01-13T18:33:21.955Z,54.70
2019-01-13T18:36:13.863Z,54.80
2019-01-13T18:39:07.389Z,54.80
2019-01-13T18:41:59.828Z,54.80
2019-01-13T18:44:52.269Z,54.80
2019-01-13T18:47:44.839Z,54.80
2019-01-13T18:50:36.820Z,54.80
2019-01-13T18:53:28.932Z,54.90
2019-01-13T18:56:20.828Z,54.90
2019-01-13T18:59:12.907Z,54.90
2019-01-13T19:02:05.597Z,54.90
2019-01-13T19:04:58.927Z,54.80
2019-01-13T19:07:51.051Z,54.90
2019-01-13T19:10:45.960Z,54.90
2019-01-13T19:13:44.119Z,54.90
2019-01-13T19:16:39.495Z,55.00
2019-01-13T19:19:32.966Z,54.90
2019-01-13T19:22:25.056Z,54.90
2019-01-13T19:25:23.371Z,55.00
2019-01-13T19:28:15.213Z,55.00
2019-01-13T19:31:07.744Z,54.90
2019-01-13T19:33:59.827Z,54.90
2019-01-13T19:36:52.321Z,54.90
2019-01-13T19:39:44.367Z,54.90
2019-01-13T19:42:36.661Z,55.00
2019-01-13T19:45:28.839Z,55.00
2019-01-13T19:48:21.012Z,55.00
2019-01-13T19:51:13.393Z,55.00
2019-01-13T19:54:05.552Z,55.10
2019-01-13T19:56:57.209Z,55.00
2019-01-13T19:59:49.739Z,54.90
2019-01-13T20:02:42.657Z,55.00
2019-01-13T20:05:35.067Z,54.90
2019-01-13T20:08:27.376Z,55.10
2019-01-13T20:11:20.648Z,55.10
2019-01-13T20:14:12.955Z,55.00
2019-01-13T20:17:05.538Z,54.90
2019-01-13T20:19:58.091Z,54.90
2019-01-13T20:22:52.052Z,54.90
2019-01-13T20:25:44.478Z,55.00
2019-01-13T20:28:36.620Z,55.00
2019-01-13T20:31:29.001Z,55.50
2019-01-13T20:34:21.016Z,55.10
2019-01-13T20:37:12.826Z,55.20
2019-01-13T20:40:04.846Z,55.00
2019-01-13T20:42:56.852Z,54.90
2019-01-13T20:45:48.612Z,55.00
2019-01-13T20:48:40.655Z,54.90
2019-01-13T20:51:32.630Z,54.90
2019-01-13T20:54:24.573Z,55.00
2019-01-13T20:57:17.058Z,55.20
2019-01-13T21:00:09.793Z,55.20
2019-01-13T21:03:02.080Z,55.00
2019-01-13T21:05:54.715Z,54.90
2019-01-13T21:08:46.647Z,55.00
2019-01-13T21:11:38.590Z,55.10
2019-01-13T21:14:31.011Z,55.00
2019-01-13T21:17:22.982Z,55.00
2019-01-13T21:20:15.208Z,55.00
2019-01-13T21:23:07.222Z,55.00
2019-01-13T21:25:59.779Z,55.10
2019-01-13T21:28:51.624Z,55.20
2019-01-13T21:31:44.595Z,55.40
2019-01-13T21:34:36.843Z,55.40
2019-01-13T21:37:30.034Z,55.30
2019-01-13T21:40:22.006Z,55.30
2019-01-13T21:43:14.136Z,55.20
2019-01-13T21:46:06.142Z,55.40
2019-01-13T21:48:58.504Z,55.50
2019-01-13T21:51:50.767Z,55.40
2019-01-13T21:54:44.278Z,55.50
2019-01-13T21:57:36.357Z,55.70
2019-01-13T22:00:29.290Z,55.60
2019-01-13T22:03:21.706Z,55.60
2019-01-13T22:06:14.281Z,55.70
2019-01-13T22:09:11.999Z,55.60
2019-01-13T22:12:03.988Z,55.60
2019-01-13T22:14:55.858Z,55.90
2019-01-13T22:17:47.724Z,55.80
2019-01-13T22:20:42.207Z,55.60
2019-01-13T22:23:34.326Z,55.60
2019-01-13T22:26:26.746Z,56.00
2019-01-13T22:29:19.260Z,55.70
2019-01-13T22:32:11.320Z,56.00
2019-01-13T22:35:04.030Z,55.70
2019-01-13T22:37:56.325Z,55.80
2019-01-13T22:40:48.570Z,55.90
2019-01-13T22:43:40.682Z,56.30
2019-01-13T22:46:32.921Z,55.80
2019-01-13T22:49:24.699Z,56.00
2019-01-13T22:52:16.735Z,56.40
2019-01-13T22:55:09.223Z,56.80
2019-01-13T22:58:01.028Z,56.30
2019-01-13T23:01:16.914Z,55.70
2019-01-13T23:04:10.379Z,55.90
2019-01-13T23:07:02.440Z,55.70
2019-01-13T23:09:55.719Z,56.40
2019-01-13T23:12:49.067Z,56.00
2019-01-13T23:15:41.195Z,56.00
2019-01-13T23:18:33.298Z,56.30
2019-01-13T23:21:25.205Z,56.00
2019-01-13T23:24:17.186Z,55.70
2019-01-13T23:27:09.330Z,55.80
2019-01-13T23:30:01.340Z,56.00
2019-01-13T23:32:53.445Z,55.80
2019-01-13T23:35:45.478Z,55.60
2019-01-13T23:38:37.479Z,55.90
2019-01-13T23:41:29.448Z,55.70
2019-01-13T23:44:21.312Z,56.00
2019-01-13T23:47:13.404Z,55.80
2019-01-13T23:50:05.347Z,55.80
2019-01-13T23:52:57.404Z,56.10
2019-01-13T23:55:49.456Z,56.00
2019-01-13T23:58:41.486Z,56.20
